Time;durP1;ratioP1;P1;durP2;ratioP2;P2;SDS_P1;SDS_P2;PMS_P1;PMS_P2;Temp;Humidity;BMP_temperature;BMP_pressure;BME280_temperature;BME280_humidity;BME280_pressure;Samples;Min_cycle;Max_cycle;Signal;HPM_P1;HPM_P2
2024/04/20 00:00:20;;;;;;;;;;;27.90;56.60;;;;;;5404556;26;19937;-40
2024/04/20 00:02:46;;;;;;;;;;;27.90;56.60;;;;;;5402161;26;19988;-41
2024/04/20 00:05:12;;;;;;;;;;;27.90;56.60;;;;;;5406043;26;19929;-41
2024/04/20 00:07:38;;;;;;;;;;;27.90;56.60;;;;;;5401147;26;19937;-41
2024/04/20 00:10:04;;;;;;;;;;;27.90;56.60;;;;;;5404882;26;19936;-40
2024/04/20 00:12:30;;;;;;;;;;;27.90;56.50;;;;;;5401732;26;19938;-42
2024/04/20 00:14:56;;;;;;;;;;;27.90;56.50;;;;;;5400031;26;20032;-40
2024/04/20 00:17:22;;;;;;;;;;;27.90;56.50;;;;;;5398422;26;19970;-40
2024/04/20 00:19:48;;;;;;;;;;;27.90;56.60;;;;;;5402756;26;19936;-40
2024/04/20 00:22:14;;;;;;;;;;;27.90;56.50;;;;;;5403307;26;19963;-41
2024/04/20 00:24:40;;;;;;;;;;;27.90;56.60;;;;;;5407975;26;19946;-41
2024/04/20 00:27:06;;;;;;;;;;;27.90;56.60;;;;;;5396238;26;19937;-41
2024/04/20 00:29:32;;;;;;;;;;;27.90;56.60;;;;;;5421757;26;19929;-41
2024/04/20 00:31:58;;;;;;;;;;;27.80;56.50;;;;;;5425022;26;19963;-40
2024/04/20 00:34:25;;;;;;;;;;;27.80;56.50;;;;;;5417950;26;19937;-43
2024/04/20 00:36:51;;;;;;;;;;;27.80;56.50;;;;;;5425472;26;19929;-40
2024/04/20 00:39:18;;;;;;;;;;;27.80;56.60;;;;;;5387747;26;19941;-41
2024/04/20 00:41:47;;;;;;;;;;;27.80;56.60;;;;;;5412572;26;19947;-41
2024/04/20 00:44:13;;;;;;;;;;;27.80;56.60;;;;;;5424661;26;19929;-40
2024/04/20 00:46:40;;;;;;;;;;;27.80;56.70;;;;;;5423994;26;19929;-41
2024/04/20 00:49:07;;;;;;;;;;;27.80;56.70;;;;;;5424647;26;19929;-40
2024/04/20 00:51:33;;;;;;;;;;;27.80;56.70;;;;;;5424182;26;19933;-41
2024/04/20 00:53:59;;;;;;;;;;;27.80;56.70;;;;;;5425013;26;19930;-41
2024/04/20 00:56:25;;;;;;;;;;;27.70;56.60;;;;;;5424722;26;19929;-41
2024/04/20 00:58:50;;;;;;;;;;;27.80;56.70;;;;;;5381314;26;19929;-41
2024/04/20 01:01:16;;;;;;;;;;;27.70;56.70;;;;;;5383791;26;20333;-43
2024/04/20 01:03:42;;;;;;;;;;;27.70;56.60;;;;;;5424637;26;19958;-41
2024/04/20 01:06:09;;;;;;;;;;;27.70;56.70;;;;;;5425040;26;20026;-40
2024/04/20 01:08:35;;;;;;;;;;;27.70;56.70;;;;;;5424782;26;19929;-41
2024/04/20 01:11:01;;;;;;;;;;;27.70;56.70;;;;;;5424123;26;19929;-43
2024/04/20 01:13:27;;;;;;;;;;;27.70;56.70;;;;;;5424608;26;20005;-41
2024/04/20 01:15:53;;;;;;;;;;;27.70;56.70;;;;;;5424852;26;19937;-41
2024/04/20 01:18:19;;;;;;;;;;;27.70;56.70;;;;;;5424074;26;19953;-41
2024/04/20 01:20:45;;;;;;;;;;;27.70;56.70;;;;;;5423900;26;19965;-41
2024/04/20 01:23:11;;;;;;;;;;;27.60;56.70;;;;;;5422152;26;19933;-41
2024/04/20 01:25:41;;;;;;;;;;;27.60;56.70;;;;;;5424289;26;19929;-40
2024/04/20 01:28:07;;;;;;;;;;;27.60;56.70;;;;;;5424627;26;20384;-41
2024/04/20 01:30:33;;;;;;;;;;;27.60;56.80;;;;;;5423657;26;19929;-40
2024/04/20 01:32:58;;;;;;;;;;;27.60;56.80;;;;;;5423132;26;19936;-40
2024/04/20 01:35:26;;;;;;;;;;;27.50;56.70;;;;;;5400844;26;19929;-42
2024/04/20 01:37:52;;;;;;;;;;;27.50;56.70;;;;;;5400037;26;19929;-40
2024/04/20 01:40:18;;;;;;;;;;;27.50;56.70;;;;;;5394307;26;19930;-40
2024/04/20 01:42:45;;;;;;;;;;;27.50;56.70;;;;;;5408195;26;19929;-40
2024/04/20 01:45:11;;;;;;;;;;;27.50;56.70;;;;;;5368445;26;19980;-42
2024/04/20 01:47:37;;;;;;;;;;;27.50;56.70;;;;;;5397874;26;19928;-41
2024/04/20 01:50:03;;;;;;;;;;;27.50;56.70;;;;;;5406610;26;19975;-40
2024/04/20 01:52:29;;;;;;;;;;;27.50;56.70;;;;;;5400273;26;19929;-41
2024/04/20 01:54:55;;;;;;;;;;;27.50;56.60;;;;;;5405409;26;19981;-40
2024/04/20 01:57:22;;;;;;;;;;;27.50;56.60;;;;;;5373071;26;19976;-40
2024/04/20 01:59:49;;;;;;;;;;;27.50;56.60;;;;;;5398298;26;19935;-41
2024/04/20 02:02:15;;;;;;;;;;;27.40;56.60;;;;;;5408416;26;19929;-40
2024/04/20 02:04:41;;;;;;;;;;;27.40;56.60;;;;;;5411582;26;19941;-41
2024/04/20 02:07:07;;;;;;;;;;;27.40;56.50;;;;;;5423377;26;20001;-40
2024/04/20 02:09:33;;;;;;;;;;;27.40;56.50;;;;;;5423449;26;19936;-41
2024/04/20 02:11:59;;;;;;;;;;;27.40;56.50;;;;;;5424530;26;19941;-40
2024/04/20 02:14:25;;;;;;;;;;;27.40;56.50;;;;;;5422354;26;19929;-40
2024/04/20 02:16:51;;;;;;;;;;;27.40;56.50;;;;;;5423863;26;19974;-41
2024/04/20 02:19:18;;;;;;;;;;;27.30;56.50;;;;;;5423599;26;19928;-41
2024/04/20 02:21:44;;;;;;;;;;;27.40;56.60;;;;;;5392150;26;19929;-40
2024/04/20 02:24:11;;;;;;;;;;;27.30;56.60;;;;;;5418240;26;19950;-40
2024/04/20 02:26:37;;;;;;;;;;;27.30;56.70;;;;;;5423102;26;19936;-41
2024/04/20 02:29:03;;;;;;;;;;;27.30;56.60;;;;;;5422419;26;20357;-42
2024/04/20 02:31:29;;;;;;;;;;;27.30;56.60;;;;;;5422485;26;19929;-41
2024/04/20 02:33:55;;;;;;;;;;;27.30;56.70;;;;;;5422384;26;19941;-40
2024/04/20 02:36:25;;;;;;;;;;;27.30;56.60;;;;;;5424192;26;19936;-41
2024/04/20 02:38:51;;;;;;;;;;;27.20;56.60;;;;;;5423670;26;20080;-42
2024/04/20 02:41:17;;;;;;;;;;;27.20;56.50;;;;;;5422994;26;19940;-40
2024/04/20 02:43:47;;;;;;;;;;;27.20;56.50;;;;;;5410204;26;19929;-41
2024/04/20 02:46:13;;;;;;;;;;;27.20;56.50;;;;;;5421645;26;19945;-41
2024/04/20 02:48:39;;;;;;;;;;;27.20;56.50;;;;;;5422605;26;19933;-44
2024/04/20 02:51:05;;;;;;;;;;;27.20;56.50;;;;;;5424502;26;19929;-47
2024/04/20 02:53:31;;;;;;;;;;;27.20;56.50;;;;;;5425153;26;19937;-41
2024/04/20 02:55:57;;;;;;;;;;;27.20;56.50;;;;;;5425976;26;19968;-41
2024/04/20 02:58:23;;;;;;;;;;;27.20;56.50;;;;;;5424574;26;19975;-40
2024/04/20 03:00:59;;;;;;;;;;;27.10;56.40;;;;;;5424885;26;20065;-41
2024/04/20 03:03:26;;;;;;;;;;;27.10;56.40;;;;;;5424086;26;19929;-40
2024/04/20 03:05:52;;;;;;;;;;;27.10;56.40;;;;;;5398333;26;19930;-44
2024/04/20 03:08:18;;;;;;;;;;;27.10;56.50;;;;;;5405615;26;19929;-41
2024/04/20 03:10:46;;;;;;;;;;;27.10;56.50;;;;;;5402166;26;20396;-40
2024/04/20 03:13:13;;;;;;;;;;;27.10;56.50;;;;;;5396970;26;19929;-40
2024/04/20 03:15:41;;;;;;;;;;;27.10;56.50;;;;;;5406426;26;19929;-41
2024/04/20 03:18:07;;;;;;;;;;;27.00;56.40;;;;;;5406190;26;20388;-40
2024/04/20 03:20:34;;;;;;;;;;;27.10;56.40;;;;;;5409489;26;19929;-41
2024/04/20 03:23:00;;;;;;;;;;;27.00;56.40;;;;;;5404085;26;19975;-41
2024/04/20 03:25:26;;;;;;;;;;;27.00;56.30;;;;;;5402353;26;19953;-44
2024/04/20 03:27:52;;;;;;;;;;;27.00;56.30;;;;;;5401760;26;19936;-40
2024/04/20 03:30:17;;;;;;;;;;;27.00;56.20;;;;;;5407227;26;19929;-42
2024/04/20 03:32:43;;;;;;;;;;;26.90;56.20;;;;;;5411916;26;19936;-40
2024/04/20 03:35:09;;;;;;;;;;;27.00;56.20;;;;;;5390750;26;19941;-43
2024/04/20 03:37:35;;;;;;;;;;;26.90;56.20;;;;;;5425223;26;19944;-40
2024/04/20 03:40:01;;;;;;;;;;;26.90;56.20;;;;;;5426212;26;19929;-40
2024/04/20 03:42:27;;;;;;;;;;;26.90;56.10;;;;;;5425835;26;19929;-45
2024/04/20 03:44:53;;;;;;;;;;;26.90;56.10;;;;;;5423674;26;19940;-41
2024/04/20 03:47:22;;;;;;;;;;;26.90;56.20;;;;;;5425398;26;19929;-41
2024/04/20 03:49:48;;;;;;;;;;;26.80;56.10;;;;;;5425777;26;19929;-41
2024/04/20 03:52:14;;;;;;;;;;;26.80;56.10;;;;;;5425223;26;19935;-42
2024/04/20 03:54:39;;;;;;;;;;;26.80;56.10;;;;;;5424531;26;19948;-44
2024/04/20 03:57:05;;;;;;;;;;;26.80;56.60;;;;;;5425955;26;20508;-41
2024/04/20 03:59:31;;;;;;;;;;;26.80;56.00;;;;;;5425271;26;20006;-41
2024/04/20 04:01:57;;;;;;;;;;;26.80;56.00;;;;;;5425480;26;19935;-40
2024/04/20 04:04:24;;;;;;;;;;;26.80;55.90;;;;;;5425182;26;20025;-41
2024/04/20 04:06:50;;;;;;;;;;;26.80;56.00;;;;;;5392884;26;19936;-42
2024/04/20 04:09:16;;;;;;;;;;;26.70;55.90;;;;;;5425572;26;19929;-42
2024/04/20 04:11:43;;;;;;;;;;;26.70;55.90;;;;;;5425613;26;20007;-42
2024/04/20 04:14:09;;;;;;;;;;;26.70;55.90;;;;;;5425185;26;19968;-42
2024/04/20 04:16:35;;;;;;;;;;;26.70;55.80;;;;;;5424829;26;19929;-40
2024/04/20 04:19:01;;;;;;;;;;;26.70;55.90;;;;;;5425231;26;19945;-42
2024/04/20 04:21:27;;;;;;;;;;;26.70;55.80;;;;;;5425175;26;19936;-44
2024/04/20 04:23:55;;;;;;;;;;;26.60;55.80;;;;;;5424508;26;20495;-41
2024/04/20 04:26:22;;;;;;;;;;;26.70;55.80;;;;;;5424047;26;19936;-40
2024/04/20 04:28:48;;;;;;;;;;;26.60;55.80;;;;;;5425176;26;19986;-40
2024/04/20 04:31:15;;;;;;;;;;;26.60;55.80;;;;;;5424947;26;19937;-41
2024/04/20 04:33:41;;;;;;;;;;;26.60;55.80;;;;;;5423660;26;19940;-42
2024/04/20 04:36:07;;;;;;;;;;;26.60;55.80;;;;;;5425233;26;19935;-43
2024/04/20 04:38:33;;;;;;;;;;;26.60;55.70;;;;;;5424790;26;19938;-40
2024/04/20 04:40:59;;;;;;;;;;;26.50;55.70;;;;;;5425449;26;19969;-40
2024/04/20 04:43:25;;;;;;;;;;;26.50;55.70;;;;;;5424709;26;19929;-43
2024/04/20 04:45:51;;;;;;;;;;;26.50;55.60;;;;;;5424924;26;19933;-40
2024/04/20 04:48:22;;;;;;;;;;;26.50;55.70;;;;;;5423913;26;19941;-40
2024/04/20 04:50:48;;;;;;;;;;;26.50;55.70;;;;;;5424573;26;20004;-40
2024/04/20 04:53:13;;;;;;;;;;;26.50;55.70;;;;;;5424741;26;19944;-40
2024/04/20 04:55:39;;;;;;;;;;;26.50;55.70;;;;;;5424046;26;19929;-42
2024/04/20 04:58:06;;;;;;;;;;;26.40;55.70;;;;;;5422174;26;19929;-41
2024/04/20 05:00:32;;;;;;;;;;;26.40;55.70;;;;;;5407552;26;19983;-41
2024/04/20 05:02:58;;;;;;;;;;;26.40;55.70;;;;;;5409331;26;19936;-40
2024/04/20 05:05:24;;;;;;;;;;;26.40;55.70;;;;;;5392984;26;19929;-40
2024/04/20 05:07:51;;;;;;;;;;;26.40;55.70;;;;;;5383492;26;19930;-40
2024/04/20 05:10:17;;;;;;;;;;;26.40;55.70;;;;;;5393632;26;19978;-40
2024/04/20 05:12:43;;;;;;;;;;;26.30;55.70;;;;;;5391347;26;19975;-40
2024/04/20 05:15:09;;;;;;;;;;;26.30;55.70;;;;;;5392368;26;19937;-40
2024/04/20 05:17:37;;;;;;;;;;;26.30;55.70;;;;;;5384143;26;19929;-40
2024/04/20 05:20:05;;;;;;;;;;;26.30;55.70;;;;;;5393359;26;19929;-42
2024/04/20 05:22:30;;;;;;;;;;;26.30;55.70;;;;;;5389913;26;19940;-40
2024/04/20 05:24:56;;;;;;;;;;;26.30;55.70;;;;;;5378588;26;22775;-39
2024/04/20 05:27:22;;;;;;;;;;;26.20;55.70;;;;;;5391154;26;19929;-40
2024/04/20 05:29:48;;;;;;;;;;;26.20;55.70;;;;;;5401363;26;20003;-40
2024/04/20 05:32:14;;;;;;;;;;;26.20;55.70;;;;;;5399772;26;19929;-39
2024/04/20 05:34:40;;;;;;;;;;;26.20;55.70;;;;;;5416246;26;20451;-41
2024/04/20 05:37:08;;;;;;;;;;;26.20;55.70;;;;;;5424571;26;19980;-39
2024/04/20 05:39:34;;;;;;;;;;;26.20;55.70;;;;;;5423329;26;20000;-42
2024/04/20 05:42:00;;;;;;;;;;;26.10;55.70;;;;;;5424501;26;19940;-39
2024/04/20 05:44:27;;;;;;;;;;;26.20;55.70;;;;;;5424348;26;19936;-40
2024/04/20 05:46:54;;;;;;;;;;;26.10;55.70;;;;;;5424009;26;20015;-40
2024/04/20 05:49:20;;;;;;;;;;;26.10;55.70;;;;;;5423345;26;19974;-39
2024/04/20 05:51:46;;;;;;;;;;;26.10;55.70;;;;;;5424597;26;20307;-40
2024/04/20 05:54:12;;;;;;;;;;;26.10;55.70;;;;;;5419033;26;19936;-39
2024/04/20 05:56:37;;;;;;;;;;;26.10;55.70;;;;;;5424148;26;19933;-39
2024/04/20 05:59:04;;;;;;;;;;;26.10;55.70;;;;;;5423702;26;19929;-43
2024/04/20 06:01:30;;;;;;;;;;;26.00;55.70;;;;;;5423458;26;19998;-40
2024/04/20 06:03:57;;;;;;;;;;;26.10;55.80;;;;;;5409473;26;19936;-45
2024/04/20 06:06:23;;;;;;;;;;;26.00;55.70;;;;;;5400395;26;19942;-43
2024/04/20 06:08:49;;;;;;;;;;;26.00;55.70;;;;;;5403440;26;20003;-41
2024/04/20 06:11:15;;;;;;;;;;;26.00;55.70;;;;;;5401339;26;19976;-40
2024/04/20 06:13:41;;;;;;;;;;;26.00;55.80;;;;;;5407832;26;19929;-40
2024/04/20 06:16:07;;;;;;;;;;;25.90;55.70;;;;;;5406625;26;19949;-40
2024/04/20 06:18:33;;;;;;;;;;;25.90;55.70;;;;;;5396849;26;19937;-40
2024/04/20 06:20:58;;;;;;;;;;;25.90;55.70;;;;;;5405336;26;19929;-41
2024/04/20 06:23:24;;;;;;;;;;;25.90;55.80;;;;;;5403377;26;20036;-40
2024/04/20 06:25:50;;;;;;;;;;;25.90;55.80;;;;;;5403214;26;19929;-40
2024/04/20 06:28:16;;;;;;;;;;;25.90;55.80;;;;;;5372729;26;19937;-41
2024/04/20 06:30:42;;;;;;;;;;;25.90;55.80;;;;;;5405257;26;19929;-40
2024/04/20 06:33:08;;;;;;;;;;;25.90;55.80;;;;;;5402904;26;19937;-41
2024/04/20 06:35:34;;;;;;;;;;;25.80;55.80;;;;;;5426570;26;19936;-40
2024/04/20 06:37:59;;;;;;;;;;;25.80;55.80;;;;;;5426952;26;20004;-40
2024/04/20 06:40:25;;;;;;;;;;;25.80;55.80;;;;;;5425784;26;19937;-40
2024/04/20 06:42:51;;;;;;;;;;;25.80;55.80;;;;;;5426490;26;19936;-40
2024/04/20 06:45:17;;;;;;;;;;;25.80;55.80;;;;;;5426838;26;19929;-40
2024/04/20 06:47:44;;;;;;;;;;;25.80;55.80;;;;;;5426622;26;19929;-41
2024/04/20 06:50:11;;;;;;;;;;;25.80;55.80;;;;;;5426399;26;19935;-40
2024/04/20 06:52:38;;;;;;;;;;;25.80;55.90;;;;;;5425376;26;19941;-43
2024/04/20 06:55:04;;;;;;;;;;;25.70;55.80;;;;;;5426165;26;19933;-41
2024/04/20 06:57:30;;;;;;;;;;;25.70;55.80;;;;;;5426462;26;19936;-42
2024/04/20 06:59:58;;;;;;;;;;;25.70;55.80;;;;;;5426288;26;19929;-43
2024/04/20 07:02:25;;;;;;;;;;;25.60;55.80;;;;;;5426382;26;19937;-42
2024/04/20 07:04:52;;;;;;;;;;;25.60;55.80;;;;;;5426111;26;19929;-42
2024/04/20 07:07:18;;;;;;;;;;;25.60;55.80;;;;;;5426027;26;19929;-44
2024/04/20 07:09:46;;;;;;;;;;;25.60;55.80;;;;;;5412957;26;19936;-42
2024/04/20 07:12:12;;;;;;;;;;;25.60;55.80;;;;;;5426196;26;19936;-42
2024/04/20 07:14:38;;;;;;;;;;;25.60;55.90;;;;;;5426580;26;19929;-41
2024/04/20 07:17:04;;;;;;;;;;;25.60;55.90;;;;;;5426644;26;19932;-40
2024/04/20 07:19:30;;;;;;;;;;;25.60;55.80;;;;;;5415781;26;19936;-42
2024/04/20 07:21:56;;;;;;;;;;;25.60;55.90;;;;;;5426639;26;19929;-40
2024/04/20 07:24:22;;;;;;;;;;;25.50;55.80;;;;;;5425171;26;19929;-41
2024/04/20 07:26:47;;;;;;;;;;;25.50;55.80;;;;;;5426340;26;19929;-41
2024/04/20 07:29:13;;;;;;;;;;;25.50;55.80;;;;;;5425965;26;19929;-42
2024/04/20 07:31:39;;;;;;;;;;;25.50;55.90;;;;;;5425793;26;19976;-44
2024/04/20 07:34:05;;;;;;;;;;;25.40;55.80;;;;;;5416454;26;19929;-41
2024/04/20 07:36:31;;;;;;;;;;;25.50;55.90;;;;;;5403612;26;19929;-40
2024/04/20 07:38:57;;;;;;;;;;;25.40;55.90;;;;;;5407120;26;19936;-42
2024/04/20 07:41:23;;;;;;;;;;;25.40;55.80;;;;;;5403392;26;20788;-40
2024/04/20 07:43:49;;;;;;;;;;;25.40;55.90;;;;;;5404373;26;19934;-40
2024/04/20 07:46:14;;;;;;;;;;;25.40;55.90;;;;;;5405897;26;19936;-41
2024/04/20 07:48:41;;;;;;;;;;;25.40;55.90;;;;;;5401465;26;20257;-41
2024/04/20 07:51:07;;;;;;;;;;;25.40;55.90;;;;;;5408895;26;19929;-41
2024/04/20 07:53:33;;;;;;;;;;;25.30;55.90;;;;;;5407693;26;19944;-43
2024/04/20 07:55:59;;;;;;;;;;;25.30;55.90;;;;;;5401917;26;19937;-41
2024/04/20 07:58:24;;;;;;;;;;;25.30;55.90;;;;;;5403862;26;19998;-40
2024/04/20 08:00:50;;;;;;;;;;;25.30;55.90;;;;;;5407779;26;19930;-44
2024/04/20 08:03:17;;;;;;;;;;;25.30;55.90;;;;;;5404366;26;19994;-41
2024/04/20 08:05:44;;;;;;;;;;;25.20;55.90;;;;;;5425714;26;19930;-42
2024/04/20 08:08:10;;;;;;;;;;;25.30;56.00;;;;;;5425628;26;19929;-42
2024/04/20 08:10:36;;;;;;;;;;;25.20;56.00;;;;;;5425020;26;19936;-43
2024/04/20 08:13:02;;;;;;;;;;;25.20;56.00;;;;;;5425568;26;19929;-41
2024/04/20 08:15:28;;;;;;;;;;;25.20;56.00;;;;;;5424935;26;19928;-41
2024/04/20 08:17:54;;;;;;;;;;;25.20;56.00;;;;;;5425209;26;19937;-40
2024/04/20 08:20:22;;;;;;;;;;;25.20;56.00;;;;;;5424685;26;19936;-41
2024/04/20 08:22:47;;;;;;;;;;;25.20;56.00;;;;;;5425240;26;19929;-42
2024/04/20 08:25:13;;;;;;;;;;;25.10;56.00;;;;;;5425164;26;19977;-43
2024/04/20 08:27:39;;;;;;;;;;;25.10;56.00;;;;;;5422937;26;19933;-40
2024/04/20 08:30:05;;;;;;;;;;;25.10;56.00;;;;;;5406657;26;19933;-40
2024/04/20 08:32:31;;;;;;;;;;;25.10;56.10;;;;;;5401448;26;19940;-40
2024/04/20 08:34:57;;;;;;;;;;;25.10;56.00;;;;;;5405671;26;19929;-42
2024/04/20 08:37:23;;;;;;;;;;;25.00;56.00;;;;;;5402437;26;19930;-45
2024/04/20 08:39:49;;;;;;;;;;;25.10;56.10;;;;;;5401129;26;19945;-40
2024/04/20 08:42:28;;;;;;;;;;;25.00;56.00;;;;;;5405868;26;19932;-41
2024/04/20 08:44:56;;;;;;;;;;;25.00;56.00;;;;;;5404620;26;19929;-40
2024/04/20 08:47:21;;;;;;;;;;;25.00;56.10;;;;;;5405881;26;19990;-40
2024/04/20 08:49:48;;;;;;;;;;;25.00;56.00;;;;;;5406894;26;19941;-40
2024/04/20 08:52:14;;;;;;;;;;;25.00;56.10;;;;;;5401754;26;19944;-40
2024/04/20 08:54:40;;;;;;;;;;;25.00;56.10;;;;;;5390559;26;19929;-40
2024/04/20 08:57:08;;;;;;;;;;;25.00;56.10;;;;;;5367044;26;19930;-41
2024/04/20 08:59:37;;;;;;;;;;;24.90;56.10;;;;;;5422761;26;19941;-40
2024/04/20 09:02:07;;;;;;;;;;;24.90;56.10;;;;;;5424928;26;19935;-40
2024/04/20 09:04:33;;;;;;;;;;;24.90;56.10;;;;;;5391368;26;19937;-40
2024/04/20 09:06:59;;;;;;;;;;;24.90;56.10;;;;;;5391331;26;19944;-41
2024/04/20 09:09:25;;;;;;;;;;;24.80;56.10;;;;;;5424445;26;19929;-40
2024/04/20 09:11:51;;;;;;;;;;;24.80;56.10;;;;;;5393222;26;19944;-40
2024/04/20 09:14:17;;;;;;;;;;;24.80;56.10;;;;;;5414099;26;19936;-41
2024/04/20 09:16:43;;;;;;;;;;;24.80;56.10;;;;;;5424400;26;20773;-40
2024/04/20 09:19:10;;;;;;;;;;;24.80;56.10;;;;;;5424671;26;19940;-42
2024/04/20 09:21:36;;;;;;;;;;;24.80;56.20;;;;;;5423866;26;19929;-41
2024/04/20 09:24:06;;;;;;;;;;;24.80;56.20;;;;;;5425169;26;19936;-40
2024/04/20 09:26:32;;;;;;;;;;;24.80;56.20;;;;;;5422701;26;19944;-41
2024/04/20 09:28:58;;;;;;;;;;;24.80;56.20;;;;;;5424604;26;19986;-40
2024/04/20 09:31:26;;;;;;;;;;;24.80;56.20;;;;;;5423644;26;19933;-40
2024/04/20 09:33:52;;;;;;;;;;;24.70;56.20;;;;;;5424235;26;20634;-40
2024/04/20 09:36:18;;;;;;;;;;;24.70;56.20;;;;;;5424068;26;19929;-40
2024/04/20 09:38:44;;;;;;;;;;;24.60;56.20;;;;;;5424645;26;19935;-41
2024/04/20 09:41:10;;;;;;;;;;;24.60;56.20;;;;;;5424813;26;19940;-40
2024/04/20 09:43:35;;;;;;;;;;;24.60;56.20;;;;;;5423920;26;19979;-43
2024/04/20 09:46:02;;;;;;;;;;;24.60;56.30;;;;;;5392931;26;19929;-43
2024/04/20 09:48:28;;;;;;;;;;;24.60;56.20;;;;;;5390228;26;19934;-42
2024/04/20 09:51:14;;;;;;;;;;;24.60;56.30;;;;;;5423221;26;20587;-41
2024/04/20 09:53:41;;;;;;;;;;;24.60;56.30;;;;;;5418065;26;19935;-40
2024/04/20 09:56:07;;;;;;;;;;;24.60;56.30;;;;;;5424363;26;20362;-42
2024/04/20 09:58:32;;;;;;;;;;;24.50;56.20;;;;;;5423786;26;20810;-43
2024/04/20 10:00:59;;;;;;;;;;;24.60;56.30;;;;;;5391985;26;19929;-42
2024/04/20 10:03:25;;;;;;;;;;;24.50;56.30;;;;;;5420391;26;19975;-42
2024/04/20 10:05:51;;;;;;;;;;;24.50;56.30;;;;;;5412517;26;19936;-40
2024/04/20 10:08:17;;;;;;;;;;;24.50;56.30;;;;;;5378604;26;19929;-41
2024/04/20 10:10:45;;;;;;;;;;;24.50;56.40;;;;;;5423949;26;19929;-40
2024/04/20 10:13:12;;;;;;;;;;;24.50;56.40;;;;;;5423692;26;19975;-43
2024/04/20 10:15:38;;;;;;;;;;;24.50;56.40;;;;;;5409428;26;19929;-41
2024/04/20 10:18:04;;;;;;;;;;;24.50;56.40;;;;;;5423799;26;20786;-40
2024/04/20 10:20:36;;;;;;;;;;;24.40;56.40;;;;;;5423315;26;19933;-40
2024/04/20 10:23:22;;;;;;;;;;;24.40;56.40;;;;;;5423493;26;19929;-40
2024/04/20 10:25:49;;;;;;;;;;;24.40;56.40;;;;;;5408149;26;19937;-41
2024/04/20 10:28:27;;;;;;;;;;;24.40;56.40;;;;;;5423269;26;20397;-42
2024/04/20 10:30:55;;;;;;;;;;;24.40;56.40;;;;;;5413654;26;19936;-41
2024/04/20 10:33:24;;;;;;;;;;;24.30;56.40;;;;;;5423468;26;19929;-41
2024/04/20 10:36:01;;;;;;;;;;;24.30;56.40;;;;;;5391828;26;19929;-41
2024/04/20 10:38:27;;;;;;;;;;;24.30;56.40;;;;;;5422884;26;19941;-40
2024/04/20 10:40:53;;;;;;;;;;;24.30;56.40;;;;;;5423130;26;19929;-44
2024/04/20 10:43:20;;;;;;;;;;;24.30;56.40;;;;;;5422733;26;19929;-40
2024/04/20 10:45:46;;;;;;;;;;;24.20;56.50;;;;;;5423458;26;19936;-40
2024/04/20 10:48:16;;;;;;;;;;;24.20;56.50;;;;;;5381933;26;19937;-40
2024/04/20 10:50:43;;;;;;;;;;;24.20;56.50;;;;;;5422258;26;19975;-40
2024/04/20 10:53:09;;;;;;;;;;;24.20;56.50;;;;;;5423268;26;20089;-40
2024/04/20 10:55:35;;;;;;;;;;;24.20;56.50;;;;;;5422090;26;19937;-42
2024/04/20 10:58:01;;;;;;;;;;;24.20;56.50;;;;;;5390889;26;19979;-40
2024/04/20 11:00:27;;;;;;;;;;;24.20;56.50;;;;;;5422429;26;19936;-40
2024/04/20 11:02:53;;;;;;;;;;;24.20;56.50;;;;;;5422030;26;19936;-42
2024/04/20 11:05:19;;;;;;;;;;;24.10;56.50;;;;;;5421771;26;20010;-40
2024/04/20 11:07:45;;;;;;;;;;;24.10;56.50;;;;;;5422413;26;19964;-40
2024/04/20 11:10:17;;;;;;;;;;;24.10;56.50;;;;;;5385722;26;19946;-40
2024/04/20 11:12:43;;;;;;;;;;;24.10;56.60;;;;;;5425787;26;19929;-44
2024/04/20 11:15:09;;;;;;;;;;;24.10;56.60;;;;;;5426441;26;19929;-40
2024/04/20 11:17:35;;;;;;;;;;;24.10;56.50;;;;;;5425487;26;19936;-40
2024/04/20 11:20:01;;;;;;;;;;;24.10;56.60;;;;;;5423405;26;19928;-39
2024/04/20 11:22:30;;;;;;;;;;;24.00;56.50;;;;;;5426015;26;19929;-43
2024/04/20 11:25:06;;;;;;;;;;;24.00;56.60;;;;;;5426267;26;19929;-39
2024/04/20 11:27:32;;;;;;;;;;;24.00;56.60;;;;;;5425939;26;19929;-40
2024/04/20 11:30:00;;;;;;;;;;;24.00;56.60;;;;;;5389067;26;19936;-40
2024/04/20 11:32:26;;;;;;;;;;;24.00;56.60;;;;;;5408961;26;19929;-39
2024/04/20 11:34:53;;;;;;;;;;;24.00;56.60;;;;;;5426187;26;19936;-40
2024/04/20 11:37:21;;;;;;;;;;;23.90;56.50;;;;;;5425283;26;19937;-40
2024/04/20 11:39:47;;;;;;;;;;;23.90;56.50;;;;;;5413608;26;19929;-43
2024/04/20 11:42:16;;;;;;;;;;;23.90;56.60;;;;;;5425681;26;19936;-42
2024/04/20 11:44:43;;;;;;;;;;;23.90;56.60;;;;;;5426345;26;19940;-41
2024/04/20 11:47:15;;;;;;;;;;;23.90;56.60;;;;;;5425749;26;19936;-40
2024/04/20 11:49:47;;;;;;;;;;;23.90;56.70;;;;;;5425525;26;19936;-43
2024/04/20 11:55:05;;;;;;;;;;;23.80;56.70;;;;;;5417996;26;19936;-41
2024/04/20 11:57:31;;;;;;;;;;;23.80;56.70;;;;;;5425667;26;19929;-43
2024/04/20 11:59:59;;;;;;;;;;;23.80;56.70;;;;;;5421596;26;19938;-42
2024/04/20 12:02:25;;;;;;;;;;;23.80;56.70;;;;;;5425261;26;19977;-41
2024/04/20 12:04:51;;;;;;;;;;;23.80;56.70;;;;;;5425632;26;20002;-45
2024/04/20 12:07:16;;;;;;;;;;;23.80;56.70;;;;;;5425269;26;19936;-45
2024/04/20 12:09:42;;;;;;;;;;;23.80;56.70;;;;;;5424856;26;19933;-39
2024/04/20 12:12:08;;;;;;;;;;;23.70;56.70;;;;;;5425950;26;19945;-40
2024/04/20 12:14:34;;;;;;;;;;;23.70;56.70;;;;;;5424498;26;19929;-43
2024/04/20 12:17:00;;;;;;;;;;;23.80;56.70;;;;;;5426295;26;19930;-40
2024/04/20 12:19:26;;;;;;;;;;;23.70;56.70;;;;;;5424762;26;19936;-40
2024/04/20 12:21:52;;;;;;;;;;;23.70;57.20;;;;;;5419908;26;19933;-41
2024/04/20 12:24:18;;;;;;;;;;;23.70;56.70;;;;;;5424067;26;19941;-43
2024/04/20 12:26:44;;;;;;;;;;;23.70;56.70;;;;;;5425346;26;19932;-40
2024/04/20 12:29:11;;;;;;;;;;;23.70;56.70;;;;;;5425031;26;19929;-40
2024/04/20 12:31:37;;;;;;;;;;;23.70;56.70;;;;;;5423648;26;19936;-40
2024/04/20 12:34:05;;;;;;;;;;;23.70;56.70;;;;;;5425209;26;19941;-40
2024/04/20 12:36:30;;;;;;;;;;;23.70;56.80;;;;;;5424720;26;19936;-42
2024/04/20 12:38:56;;;;;;;;;;;23.70;56.80;;;;;;5393858;26;19965;-40
2024/04/20 12:41:22;;;;;;;;;;;23.60;56.80;;;;;;5424783;26;20261;-41
2024/04/20 12:43:51;;;;;;;;;;;23.60;56.70;;;;;;5426186;26;19973;-40
2024/04/20 12:46:17;;;;;;;;;;;23.70;56.80;;;;;;5424465;26;20034;-39
2024/04/20 12:48:43;;;;;;;;;;;23.60;56.80;;;;;;5425215;26;19936;-41
2024/04/20 12:51:09;;;;;;;;;;;23.60;56.80;;;;;;5424764;26;19939;-41
2024/04/20 12:53:35;;;;;;;;;;;23.60;56.80;;;;;;5424735;26;20427;-43
2024/04/20 12:56:01;;;;;;;;;;;23.60;56.80;;;;;;5424924;26;19929;-41
2024/04/20 12:58:27;;;;;;;;;;;23.60;56.80;;;;;;5417795;26;19937;-43
2024/04/20 13:00:53;;;;;;;;;;;23.60;56.80;;;;;;5400083;26;19980;-40
2024/04/20 13:03:20;;;;;;;;;;;23.60;56.80;;;;;;5373801;26;19930;-41
2024/04/20 13:05:46;;;;;;;;;;;23.60;56.80;;;;;;5404379;26;19929;-40
2024/04/20 13:08:12;;;;;;;;;;;23.60;56.80;;;;;;5404275;26;19936;-40
2024/04/20 13:10:38;;;;;;;;;;;23.60;56.80;;;;;;5403200;26;19933;-42
2024/04/20 13:13:04;;;;;;;;;;;23.60;56.80;;;;;;5402530;26;19929;-40
2024/04/20 13:15:30;;;;;;;;;;;23.60;56.80;;;;;;5403797;26;21609;-41
2024/04/20 13:17:56;;;;;;;;;;;23.60;56.80;;;;;;5400786;26;19936;-39
2024/04/20 13:20:23;;;;;;;;;;;23.60;56.80;;;;;;5404669;26;19993;-40
2024/04/20 13:22:49;;;;;;;;;;;23.60;56.80;;;;;;5404076;26;19960;-40
2024/04/20 13:25:15;;;;;;;;;;;23.60;56.80;;;;;;5402627;26;19929;-40
2024/04/20 13:27:41;;;;;;;;;;;23.60;56.80;;;;;;5399672;26;20797;-40
2024/04/20 13:30:07;;;;;;;;;;;23.60;56.80;;;;;;5424090;26;19929;-41
2024/04/20 13:32:33;;;;;;;;;;;23.70;56.80;;;;;;5423925;26;19950;-39
2024/04/20 13:34:59;;;;;;;;;;;23.70;56.90;;;;;;5423907;26;19929;-40
2024/04/20 13:37:25;;;;;;;;;;;23.60;56.80;;;;;;5424102;26;19933;-40
2024/04/20 13:39:50;;;;;;;;;;;23.70;56.90;;;;;;5424287;26;20009;-40
2024/04/20 13:42:17;;;;;;;;;;;23.70;56.90;;;;;;5424870;26;19929;-40
2024/04/20 13:44:48;;;;;;;;;;;23.70;56.90;;;;;;5422912;26;19929;-40
2024/04/20 13:47:15;;;;;;;;;;;23.70;56.90;;;;;;5423540;26;19937;-41
2024/04/20 13:49:41;;;;;;;;;;;23.70;56.90;;;;;;5423610;26;19936;-39
2024/04/20 13:52:06;;;;;;;;;;;23.70;56.90;;;;;;5418252;26;19936;-39
2024/04/20 13:54:33;;;;;;;;;;;23.70;57.00;;;;;;5423284;26;19929;-42
2024/04/20 13:56:59;;;;;;;;;;;23.70;57.00;;;;;;5424001;26;19975;-39
2024/04/20 13:59:25;;;;;;;;;;;23.70;57.00;;;;;;5411374;26;19929;-39
2024/04/20 14:01:51;;;;;;;;;;;23.70;57.00;;;;;;5423949;26;19936;-40
2024/04/20 14:04:18;;;;;;;;;;;23.70;57.00;;;;;;5423493;26;19939;-39
2024/04/20 14:06:43;;;;;;;;;;;23.70;57.00;;;;;;5424054;26;19975;-42
2024/04/20 14:09:09;;;;;;;;;;;23.80;57.00;;;;;;5422484;26;19957;-42
2024/04/20 14:11:35;;;;;;;;;;;23.80;57.00;;;;;;5423466;26;19929;-39
2024/04/20 14:14:01;;;;;;;;;;;23.80;57.00;;;;;;5424199;26;19974;-39